San Antonio, Texas
Current Conditions -  °F | °C
As of 12:13 PM on Thursday 18 Dec 2014 (Local Time) from KSKF Reporting Station
Broken Clouds Broken Clouds  
Wind Chill: 64°   Ceiling: 5500
Heat Index: 64°   Visibility: 10mi
Dew Point: 59°   Wind: 7mph
Humidity: 83%   Direction: 60°ENE
Pressure: 30.07"   Gusts: NA
Location:  29.42°N, 98.49°W
Report Text: KSKF 181813Z AUTO 06006KT 10SM FEW037 BKN055 18/15 A3007 RMK AO2 $
Loading
Personal Weather Stations






























Interactive Weather Map New forecast layout! Learn more

10-Day Weather Forecast

Advertisements
Track Severe Weather on mobile